Arock, OR

10:45 AM MDT on October 21, 2014 (GMT -0600)
Caldwell Industrial | Change Station
CLOSE
Current Station
Airport
Location: Caldwell,
Elevation: 2428 ft
Nearby Weather Stations

Elev 2428 ft 43.64 °N, 116.64 °W | Updated 30 minutes ago

Partly Cloudy
Partly Cloudy
50 °F
Feels Like 50 °F
N
4
Wind Variable Wind from South

Today
High -- | Low -- °F
--% Chance of Precip.
Yesterday
High -- | Low -- °F
Precip. -- in
8:10 AM 6:57 PM
Waning Crescent, 5% visible
Pressure 30.01 in
Visibility 10.0 miles
Clouds Few 5000 ft
Mostly Cloudy 6000 ft
Mostly Cloudy 11000 ft
Dew Point 39 °F
Humidity 66%
Rainfall 0.59 in
Snow Depth Not available.
UV 1 out of 12
Pollen .40 out of 12
Air Quality Not available.
Flu Activity Sporadic
METAR KEUL 211615Z AUTO 19003KT 10SM FEW050 BKN060 BKN110 10/04 A3001 RMK AO1

More Conditions Fewer Conditions

Pressure 30.01 in
Visibility 10.0 miles
Clouds Few 5000 ft
Mostly Cloudy 6000 ft
Mostly Cloudy 11000 ft
Dew Point 39 °F
Humidity 66%
Rainfall 0.59 in
Snow Depth Not available.
UV 1 out of 12
Pollen .40 out of 12
Air Quality Not available.
Flu Activity Sporadic
METAR KEUL 211615Z AUTO 19003KT 10SM FEW050 BKN060 BKN110 10/04 A3001 RMK AO1

More Conditions Fewer Conditions

10-Day Weather Forecast

Almanac

Astronomy

Oct. 21, 2014 Rise Set
Actual Time 8:10 AM MDT 6:57 PM MDT
Civil Twilight 7:41 AM MDT 7:26 PM MDT
Nautical Twilight 7:08 AM MDT 7:59 PM MDT
Astronomical Twilight 6:36 AM MDT 8:32 PM MDT
Moon 5:56 AM MDT 5:56 PM MDT
Length of Visible Light 11h 44m
Length of Day
10h 47m
Tomorrow will be 2m 45s shorter.
Waning Crescent, 5% of the Moon is Illuminated
Today
Waning Crescent
Oct 23
New
Oct 30
First Quarter
Nov 6
Full
Nov 14
Last Quarter

Today's Extremes

State Highs State Lows

Community

WunderPhotos

Upload Photos

1,763,712 photos uploaded!

Nearby

Snow Depth

Station Depth Elevation
Rock Springs 0 in 5550 ft
Lake Creek R.S. 0 in 5200 ft
Blue Mountain Spring 0 in 5900 ft
Snow Mountain 0 in 6220 ft
Tipton 0 in 5150 ft

Earthquake Activity

City Distance Mag. Time & Date
No recent earthquake activity has been reported nearby.
Minimum magnitude displayed is 2.5.

Coastal Water Temperatures

Place Temperature
No Stations Reporting

Nearby Weather Stations